createdAt,value
2023-05-16T07:03:45.412Z,98127.00
2023-05-16T07:12:21.375Z,98127.00
2023-05-16T07:18:52.589Z,98129.00
2023-05-16T07:26:09.952Z,98125.00
2023-05-16T07:28:37.413Z,98131.00
2023-05-16T07:34:45.105Z,98130.00
2023-05-16T07:42:03.071Z,98139.00
2023-05-16T07:44:31.475Z,98147.00
2023-05-16T07:46:59.200Z,98142.00
2023-05-16T07:53:30.506Z,98145.00
2023-05-16T07:55:58.033Z,98138.00
2023-05-16T07:58:25.552Z,98145.00
2023-05-16T08:00:53.007Z,98153.00
2023-05-16T08:10:13.615Z,98159.00
2023-05-16T08:20:56.033Z,98154.00
2023-05-16T08:30:09.921Z,98177.00
2023-05-16T08:39:10.801Z,98172.00
2023-05-16T08:47:39.437Z,98180.00
2023-05-16T08:55:23.151Z,98182.00
2023-05-16T09:05:03.322Z,98176.00
2023-05-16T09:12:35.614Z,98178.00
2023-05-16T09:15:07.292Z,98184.00
2023-05-16T09:17:46.796Z,98187.00
2023-05-16T09:23:11.765Z,98193.00
2023-05-16T09:25:41.745Z,98193.00
2023-05-16T09:28:12.495Z,98193.00
2023-05-16T09:30:39.952Z,98191.00
2023-05-16T09:33:08.331Z,98199.00
2023-05-16T09:35:44.919Z,98202.00
2023-05-16T09:38:18.099Z,98204.00
2023-05-16T09:40:46.748Z,98200.00
2023-05-16T09:43:17.860Z,98200.00
2023-05-16T09:45:49.857Z,98210.00
2023-05-16T09:48:18.465Z,98212.00
2023-05-16T09:50:54.658Z,98203.00
2023-05-16T09:53:35.089Z,98208.00
2023-05-16T09:56:15.017Z,98209.00
2023-05-16T09:58:45.381Z,98210.00
2023-05-16T10:01:13.639Z,98213.00
2023-05-16T10:03:43.907Z,98211.00
2023-05-16T10:06:12.740Z,98201.00
2023-05-16T10:08:44.342Z,98204.00
2023-05-16T10:11:12.436Z,98211.00
2023-05-16T10:13:43.127Z,98214.00
2023-05-16T10:16:14.206Z,98205.00
2023-05-16T10:18:42.831Z,98214.00
2023-05-16T10:21:19.318Z,98217.00
2023-05-16T10:23:51.829Z,98214.00
2023-05-16T10:26:22.029Z,98198.00
2023-05-16T10:28:50.857Z,98211.00
2023-05-16T10:31:18.625Z,98209.00
2023-05-16T10:33:47.526Z,98207.00
2023-05-16T10:36:16.811Z,98209.00
2023-05-16T10:38:46.736Z,98202.00
2023-05-16T10:41:14.453Z,98213.00
2023-05-16T10:43:56.108Z,98214.00
2023-05-16T10:46:25.314Z,98204.00
2023-05-16T10:48:54.746Z,98215.00
2023-05-16T10:51:23.204Z,98214.00
2023-05-16T10:53:55.200Z,98211.00
2023-05-16T10:56:28.781Z,98216.00
2023-05-16T10:58:57.067Z,98218.00
2023-05-16T11:01:35.858Z,98217.00
2023-05-16T11:04:11.464Z,98214.00
2023-05-16T11:06:52.493Z,98221.00
2023-05-16T11:09:25.622Z,98229.00
2023-05-16T11:11:55.788Z,98220.00
2023-05-16T11:14:34.728Z,98222.00
2023-05-16T11:17:22.910Z,98221.00
2023-05-16T11:19:59.944Z,98209.00
2023-05-16T11:22:30.476Z,98222.00
2023-05-16T11:25:11.030Z,98212.00
2023-05-16T11:27:48.046Z,98232.00
2023-05-16T11:30:19.627Z,98222.00
2023-05-16T11:32:49.249Z,98229.00
2023-05-16T11:35:18.999Z,98223.00
2023-05-16T11:37:48.226Z,98231.00
2023-05-16T11:40:17.355Z,98227.00
2023-05-16T11:42:48.149Z,98241.00
2023-05-16T11:45:24.732Z,98229.00
2023-05-16T11:47:52.877Z,98231.00
2023-05-16T11:50:26.609Z,98237.00
2023-05-16T11:52:57.263Z,98242.00
2023-05-16T11:55:41.488Z,98254.00
2023-05-16T11:58:10.813Z,98247.00
2023-05-16T12:00:47.663Z,98246.00
2023-05-16T12:03:15.495Z,98242.00
2023-05-16T12:05:56.966Z,98245.00
2023-05-16T12:08:25.335Z,98252.00
2023-05-16T12:10:53.942Z,98246.00
2023-05-16T12:13:25.215Z,98242.00
2023-05-16T12:15:53.202Z,98248.00
2023-05-16T12:18:24.229Z,98252.00
2023-05-16T12:20:52.543Z,98251.00
2023-05-16T12:23:20.055Z,98252.00
2023-05-16T12:25:49.546Z,98247.00
2023-05-16T12:28:17.419Z,98252.00
2023-05-16T12:30:48.179Z,98258.00
2023-05-16T12:33:17.531Z,98266.00
2023-05-16T12:35:47.389Z,98261.00
2023-05-16T12:38:17.817Z,98259.00
2023-05-16T12:40:46.282Z,98261.00
2023-05-16T12:43:21.730Z,98271.00
2023-05-16T12:45:58.535Z,98269.00
2023-05-16T12:48:35.838Z,98272.00
2023-05-16T12:51:18.816Z,98269.00
2023-05-16T13:04:52.859Z,98265.00
2023-05-16T13:07:20.288Z,98272.00
2023-05-16T13:27:55.798Z,98294.00
2023-05-16T13:43:05.762Z,98295.00
2023-05-16T13:45:33.728Z,98291.00
2023-05-16T13:52:01.743Z,98301.00
2023-05-16T13:54:29.208Z,98300.00
2023-05-16T13:56:57.698Z,98303.00
2023-05-16T13:59:44.896Z,98297.00
2023-05-16T14:02:13.354Z,98311.00
2023-05-16T14:04:41.139Z,98313.00
2023-05-16T14:07:08.606Z,98313.00
2023-05-16T14:09:39.333Z,98313.00
2023-05-16T14:12:10.276Z,98313.00
2023-05-16T14:14:38.629Z,98323.00
2023-05-16T14:17:06.875Z,98312.00
2023-05-16T14:19:34.698Z,98319.00
2023-05-16T14:22:02.879Z,98316.00
2023-05-16T14:24:30.335Z,98323.00
2023-05-16T14:33:37.070Z,98335.00
2023-05-16T14:36:08.408Z,98327.00
2023-05-16T14:38:36.368Z,98330.00
2023-05-16T14:48:51.250Z,98345.00
2023-05-16T14:51:18.757Z,98355.00
2023-05-16T15:01:54.039Z,98343.00
2023-05-16T15:13:46.917Z,98353.00
2023-05-16T15:27:24.549Z,98363.00
2023-05-16T17:06:23.473Z,98430.00
2023-05-16T17:30:51.141Z,98444.00
2023-05-16T17:54:24.146Z,98466.00
2023-05-16T18:15:51.251Z,98459.00
2023-05-16T18:28:59.248Z,98462.00
